Latest Weather Observations for Roebourne Airport

IDW60801

Issued at 6:03 am WST Sunday 10 May 2026 (issued every 10 minutes, with the page automatically refreshed every 10 minutes)

About weather observations | Map of weather stations | Latest weather observations for WA | Other Formats
Station Details ID: 004090 Name: ROEBOURNE AERO Lat: -20.76 Lon: 117.16 Height: 10.7 m
Data from the previous 72 hours. | See also: Recent months at Roebourne Airport
Date/Time
WST
Temp
°C
App
Temp
°C
Dew
Point
°C
Rel
Hum
%
Delta-T
°C
Wind Press
QNH
hPa
Press
MSL
hPa
Rain since
9am
mm
Dir  Spd
km/h
Gust
km/h
Spd
kts
Gust
kts
10/06:00am 18.4 12.6 -0.4 28 8.1 ESE 20 28 11 15 1017.8 1017.7 -
10/05:30am 18.8 12.9 -0.6 27 8.4 ESE 20 26 11 14 1017.7 1017.6 -
10/05:00am 19.3 13.0 -0.7 26 8.6 ESE 22 30 12 16 1017.6 1017.5 -
10/04:30am 19.6 13.4 -0.4 26 8.7 ESE 22 30 12 16 1017.5 1017.4 -
10/04:00am 20.0 13.4 -0.6 25 9.0 SE 24 30 13 16 1017.5 1017.4 -
10/03:30am 20.0 13.8 -0.6 25 9.0 ESE 22 28 12 15 1017.4 1017.3 -
10/03:00am 19.5 13.8 -1.0 25 8.8 SE 19 24 10 13 1017.5 1017.4 0.0
10/02:30am 19.3 13.5 -1.2 25 8.8 SE 19 20 10 11 1017.5 1017.4 -
10/02:00am 19.8 14.0 -1.3 24 9.0 SE 19 24 10 13 1017.7 1017.6 -
10/01:30am 19.7 13.9 -1.4 24 9.0 SE 19 22 10 12 1018.0 1017.9 -
10/01:00am 15.8 10.9 -0.8 32 6.9 SSE 15 17 8 9 1017.9 1017.8 -
10/12:30am 15.3 10.7 -1.3 32 6.8 SSE 13 15 7 8 1018.0 1017.9 -
10/12:00am 18.6 13.5 -1.8 25 8.6 SSE 15 19 8 10 1017.9 1017.8 -
 
Date/Time
WST
Temp
°C
App
Temp
°C
Dew
Point
°C
Rel
Hum
%
Delta-T
°C
Wind Press
QNH
hPa
Press
MSL
hPa
Rain since
9am
mm
Dir  Spd
km/h
Gust
km/h
Spd
kts
Gust
kts
09/11:30pm 18.5 13.5 -1.3 26 8.4 SSE 15 17 8 9 1017.9 1017.8 -
09/11:00pm 20.7 15.2 -1.8 22 9.6 SE 17 20 9 11 1018.0 1017.9 -
09/10:30pm 20.6 15.2 -1.2 23 9.4 SE 17 20 9 11 1018.2 1018.1 -
09/10:00pm 21.0 15.3 -0.9 23 9.6 SE 19 22 10 12 1018.2 1018.1 -
09/09:30pm 21.7 16.0 -0.9 22 9.9 SE 19 22 10 12 1018.3 1018.2 -
09/09:00pm 20.9 15.2 -0.4 24 9.4 SE 19 20 10 11 1018.1 1018.0 -
09/08:30pm 17.8 12.6 0.0 30 7.7 ESE 17 19 9 10 1017.9 1017.8 -
09/08:00pm 18.4 13.2 0.1 29 8.0 ESE 17 17 9 9 1017.6 1017.5 -
09/07:30pm 19.0 14.2 0.1 28 8.3 ESE 15 15 8 8 1017.1 1017.0 -
09/07:00pm 19.5 14.3 0.0 27 8.6 ESE 17 17 9 9 1016.6 1016.5 -
09/06:30pm 21.2 16.7 -0.1 24 9.5 ESE 13 17 7 9 1016.5 1016.4 -
09/06:00pm 23.9 18.6 -0.4 20 11.0 ESE 17 20 9 11 1016.3 1016.2 -
09/05:30pm 26.1 20.3 0.0 18 12.1 ESE 20 28 11 15 1016.0 1015.9 -
09/05:00pm 27.4 21.3 0.2 17 12.8 ESE 22 30 12 16 1015.7 1015.6 -
09/04:30pm 28.0 21.8 -0.1 16 13.2 ESE 22 32 12 17 1015.5 1015.4 -
09/04:00pm 28.6 22.6 1.2 17 13.2 SE 22 35 12 19 1015.5 1015.4 -
09/03:30pm 28.5 21.6 0.3 16 13.4 SE 26 37 14 20 1015.5 1015.4 0.0
09/03:00pm 29.0 22.4 2.3 18 13.2 ESE 26 35 14 19 1015.5 1015.4 0.0
09/02:30pm 29.1 23.7 2.4 18 13.2 ESE 20 33 11 18 1015.7 1015.6 0.0
09/02:00pm 28.4 23.0 2.6 19 12.7 SE 20 32 11 17 1016.1 1016.0 0.0
09/01:30pm 28.5 23.1 2.7 19 12.8 SE 20 33 11 18 1016.5 1016.4 0.0
09/01:00pm 28.0 21.9 3.0 20 12.4 E 24 33 13 18 1016.7 1016.6 0.0
09/12:30pm 28.0 21.9 3.0 20 12.4 ESE 24 41 13 22 1017.3 1017.2 0.0
09/12:00pm 27.7 20.2 3.4 21 12.1 E 32 46 17 25 1017.8 1017.7 0.0
09/11:42am 27.7 20.6 3.4 21 12.1 E 30 48 16 26 1018.2 1018.1 0.0
09/11:30am 27.3 20.1 3.1 21 12.0 E 30 44 16 24 1018.4 1018.3 0.0
09/11:00am 27.1 19.4 3.6 22 11.7 E 33 41 18 22 1019.0 1018.9 0.0
09/10:30am 26.4 18.4 3.6 23 11.3 E 35 46 19 25 1019.3 1019.2 0.0
09/10:00am 25.6 16.8 3.6 24 10.8 E 39 48 21 26 1019.6 1019.5 0.0
09/09:30am 25.0 16.1 3.0 24 10.7 E 39 52 21 28 1019.9 1019.8 0.0
09/09:00am 24.2 16.0 2.9 25 10.3 E 35 48 19 26 1019.9 1019.8 0.0
09/08:30am 23.4 15.6 2.8 26 9.9 ESE 33 44 18 24 1019.7 1019.6 0.0
09/08:00am 22.2 14.5 2.3 27 9.3 ESE 32 43 17 23 1019.7 1019.6 0.0
09/07:30am 21.2 14.7 2.5 29 8.8 ESE 26 35 14 19 1019.4 1019.3 0.0
09/07:00am 19.9 14.1 2.3 31 8.1 ESE 22 28 12 15 1019.2 1019.1 0.0
09/06:30am 19.3 13.5 2.2 32 7.8 ESE 22 26 12 14 1018.6 1018.5 0.0
09/06:00am 19.4 14.0 2.3 32 7.8 ESE 20 24 11 13 1018.6 1018.5 0.0
09/05:30am 19.8 14.4 2.2 31 8.1 ESE 20 26 11 14 1018.3 1018.2 0.0
09/05:00am 19.1 13.8 2.0 32 7.8 ESE 19 22 10 12 1018.1 1018.0 0.0
09/04:30am 19.5 14.0 1.9 31 8.0 ESE 20 26 11 14 1018.0 1017.9 0.0
09/04:00am 19.3 13.8 1.8 31 7.9 ESE 20 24 11 13 1018.0 1017.9 0.0
09/03:30am 19.4 14.0 1.4 30 8.1 ESE 19 22 10 12 1018.0 1017.9 0.0
09/03:00am 19.6 14.1 1.6 30 8.2 ESE 20 26 11 14 1017.8 1017.7 0.0
09/02:30am 19.8 14.4 1.3 29 8.4 ESE 19 22 10 12 1017.7 1017.6 0.0
09/02:00am 19.9 15.0 1.8 30 8.3 ESE 17 20 9 11 1017.8 1017.7 0.0
09/01:30am 20.9 16.0 2.2 29 8.7 ESE 17 20 9 11 1018.0 1017.9 0.0
09/01:00am 21.1 16.4 3.3 31 8.4 ESE 17 19 9 10 1017.9 1017.8 0.0
09/12:30am 22.6 18.0 3.7 29 9.2 ESE 17 20 9 11 1017.9 1017.8 0.0
09/12:00am 22.2 18.0 5.6 34 8.3 ESE 17 19 9 10 1017.9 1017.8 0.0
 
Date/Time
WST
Temp
°C
App
Temp
°C
Dew
Point
°C
Rel
Hum
%
Delta-T
°C
Wind Press
QNH
hPa
Press
MSL
hPa
Rain since
9am
mm
Dir  Spd
km/h
Gust
km/h
Spd
kts
Gust
kts
08/11:30pm 21.7 18.7 7.9 41 7.2 ESE 13 13 7 7 1018.0 1017.9 0.0
08/11:00pm 21.6 20.3 12.5 56 5.1 ESE 11 13 6 7 1017.8 1017.7 0.0
08/10:30pm 21.4 21.1 14.3 64 4.1 E 9 11 5 6 1018.0 1017.9 0.0
08/10:00pm 21.7 21.0 14.4 63 4.3 E 11 11 6 6 1018.0 1017.9 0.0
08/09:30pm 21.3 21.0 14.5 65 4.0 SE 9 11 5 6 1018.0 1017.9 0.0
08/09:00pm 21.5 21.0 13.9 62 4.4 ESE 9 9 5 5 1018.0 1017.9 0.0
08/08:30pm 22.2 22.0 13.0 56 5.3 E 6 7 3 4 1017.6 1017.5 0.0
08/08:00pm 22.6 22.3 12.8 54 5.6 E 6 7 3 4 1017.1 1017.0 0.0
08/07:30pm 23.4 22.9 12.7 51 6.1 E 7 9 4 5 1016.9 1016.8 0.0
08/07:00pm 23.5 23.0 12.5 50 6.3 ESE 7 7 4 4 1016.6 1016.5 0.0
08/06:30pm 24.2 24.7 12.8 49 6.6 ENE 2 7 1 4 1016.4 1016.3 0.0
08/06:00pm 24.6 23.9 13.2 49 6.6 NNE 9 11 5 6 1016.3 1016.2 0.0
08/05:30pm 25.7 24.0 12.5 44 7.6 NNE 13 17 7 9 1016.1 1016.0 0.0
08/05:00pm 26.0 23.4 12.1 42 8.0 NNE 17 20 9 11 1016.1 1016.0 0.0
08/04:30pm 26.4 23.0 12.5 42 8.1 NNE 22 28 12 15 1015.7 1015.6 0.0
08/04:00pm 28.1 23.2 11.2 35 9.6 NE 28 33 15 18 1015.3 1015.2 0.0
08/03:30pm 27.6 22.2 8.0 29 10.6 NE 26 32 14 17 1015.5 1015.4 0.0
08/03:00pm 27.8 21.9 6.0 25 11.4 NE 26 32 14 17 1015.7 1015.6 0.0
08/02:30pm 27.5 21.3 6.3 26 11.1 NE 28 35 15 19 1015.7 1015.6 0.0
08/02:00pm 27.4 21.0 6.8 27 10.9 ENE 30 37 16 20 1015.9 1015.8 0.0
08/01:30pm 28.0 20.3 2.2 19 12.6 E 32 43 17 23 1016.3 1016.2 0.0
08/01:00pm 28.7 20.4 2.1 18 13.0 E 35 56 19 30 1016.4 1016.3 0.0
08/12:56pm 28.6 20.3 2.0 18 13.0 E 35 56 19 30 1016.5 1016.4 0.0
08/12:30pm 29.2 20.7 3.2 19 13.1 E 37 52 20 28 1016.8 1016.7 0.0
08/12:00pm 29.0 20.9 3.1 19 12.9 E 35 48 19 26 1017.5 1017.4 0.0
08/11:30am 28.8 19.9 2.9 19 12.9 E 39 48 21 26 1018.1 1018.0 0.0
08/11:05am 28.3 19.9 3.9 21 12.3 E 37 56 20 30 1018.7 1018.6 0.0
08/11:00am 28.3 19.8 3.2 20 12.5 E 37 50 20 27 1018.7 1018.6 0.0
08/10:30am 27.3 17.6 3.1 21 12.0 E 43 54 23 29 1019.2 1019.1 0.0
08/10:00am 26.7 17.0 2.6 21 11.7 E 43 57 23 31 1019.5 1019.4 0.0
08/09:37am 26.7 17.1 3.2 22 11.6 E 43 61 23 33 1019.5 1019.4 0.0
08/09:30am 26.1 15.8 2.7 22 11.4 E 46 59 25 32 1019.5 1019.4 0.0
08/09:13am 25.8 16.8 2.5 22 11.3 E 39 57 21 31 1019.4 1019.3 0.0
08/09:00am 25.2 16.1 2.0 22 11.1 E 39 46 21 25 1019.6 1019.5 0.0
08/08:30am 24.5 16.2 2.0 23 10.7 E 35 46 19 25 1019.5 1019.4 0.0
08/08:20am 24.0 16.9 1.6 23 10.5 E 28 43 15 23 1019.5 1019.4 0.0
08/08:00am 22.8 17.6 2.3 26 9.7 ESE 19 24 10 13 1019.5 1019.4 0.0
08/07:30am 21.0 16.1 2.3 29 8.7 E 17 22 9 12 1019.5 1019.4 0.0
08/07:00am 19.8 14.9 2.2 31 8.1 ESE 17 20 9 11 1019.3 1019.2 0.0
08/06:30am 19.8 14.9 1.7 30 8.3 E 17 19 9 10 1019.0 1018.9 0.0
08/06:00am 20.0 15.0 1.4 29 8.4 E 17 20 9 11 1018.5 1018.4 0.0
08/05:30am 20.7 15.4 1.6 28 8.8 ESE 19 22 10 12 1018.1 1018.0 0.0
08/05:00am 21.1 15.5 1.4 27 9.0 ESE 20 24 11 13 1017.8 1017.7 0.0
08/04:30am 21.4 15.8 1.1 26 9.3 ESE 20 26 11 14 1017.7 1017.6 0.0
08/04:00am 21.6 16.0 1.3 26 9.3 ESE 20 26 11 14 1017.6 1017.5 0.0
08/03:30am 21.4 15.9 1.7 27 9.1 ESE 20 26 11 14 1017.4 1017.3 0.0
08/03:00am 21.3 15.8 1.6 27 9.1 ESE 20 26 11 14 1017.3 1017.2 0.0
08/02:30am 20.3 15.5 2.6 31 8.3 ESE 17 20 9 11 1017.3 1017.2 0.0
08/02:00am 20.6 15.9 3.3 32 8.2 ESE 17 20 9 11 1017.3 1017.2 0.0
08/01:30am 21.7 16.6 3.9 31 8.6 ESE 20 24 11 13 1017.4 1017.3 0.0
08/01:00am 20.1 16.2 7.1 43 6.6 ESE 17 19 9 10 1017.2 1017.1 0.0
08/12:30am 19.5 16.9 10.8 57 4.7 ESE 15 17 8 9 1017.4 1017.3 0.0
08/12:00am 20.2 18.8 13.4 65 3.9 ESE 13 17 7 9 1017.6 1017.5 0.0
 
Date/Time
WST
Temp
°C
App
Temp
°C
Dew
Point
°C
Rel
Hum
%
Delta-T
°C
Wind Press
QNH
hPa
Press
MSL
hPa
Rain since
9am
mm
Dir  Spd
km/h
Gust
km/h
Spd
kts
Gust
kts
07/11:30pm 20.5 19.7 15.1 71 3.2 E 13 15 7 8 1017.3 1017.2 0.0
07/11:00pm 21.3 20.8 16.0 72 3.2 ESE 13 13 7 7 1017.6 1017.5 0.0
07/10:30pm 21.0 21.1 16.6 76 2.7 ESE 11 13 6 7 1017.5 1017.4 0.0
07/10:00pm 21.4 21.8 17.2 77 2.6 E 11 13 6 7 1017.3 1017.2 0.0
07/09:30pm 22.7 23.2 18.3 76 2.8 E 13 15 7 8 1017.1 1017.0 0.0
07/09:00pm 22.5 22.8 17.8 75 2.9 E 13 15 7 8 1016.9 1016.8 0.0
07/08:30pm 23.5 24.0 18.4 73 3.2 E 13 15 7 8 1016.7 1016.6 0.0
07/08:00pm 24.7 25.2 18.4 68 4.0 E 13 15 7 8 1016.3 1016.2 0.0
07/07:30pm 25.9 26.5 18.6 64 4.6 ENE 13 17 7 9 1015.8 1015.7 0.0
07/07:00pm 26.1 26.8 18.8 64 4.7 NE 13 17 7 9 1015.6 1015.5 0.0
07/06:30pm 26.4 26.4 18.0 60 5.3 NE 15 19 8 10 1015.3 1015.2 0.0
07/06:00pm 26.7 25.3 16.6 54 6.3 NE 19 24 10 13 1014.9 1014.8 0.0
07/05:30pm 27.8 26.2 16.4 50 7.1 NE 20 30 11 16 1014.8 1014.7 0.0
07/05:00pm 28.8 24.4 14.2 40 8.8 NE 30 37 16 20 1014.5 1014.4 0.0
07/04:30pm 29.5 25.5 14.1 39 9.3 NE 28 35 15 19 1014.4 1014.3 0.0
07/04:00pm 29.8 25.5 13.1 36 9.9 NE 28 35 15 19 1014.4 1014.3 0.0
07/03:30pm 30.3 26.1 13.6 36 10.0 NE 28 33 15 18 1014.4 1014.3 0.0
07/03:00pm 30.3 26.0 14.4 38 9.6 NE 30 39 16 21 1014.6 1014.5 0.0
07/02:30pm 31.2 24.6 10.0 27 12.1 NE 35 44 19 24 1014.6 1014.5 0.0
07/02:00pm 31.1 24.3 9.3 26 12.2 NE 35 46 19 25 1014.8 1014.7 0.0
07/01:30pm 30.6 23.2 10.0 28 11.7 ENE 39 48 21 26 1015.1 1015.0 0.0
07/01:00pm 31.2 23.5 10.0 27 12.0 ENE 41 54 22 29 1015.4 1015.3 0.0
07/12:30pm 29.7 21.1 8.2 26 11.8 ENE 43 54 23 29 1015.8 1015.7 0.0
07/12:00pm 29.9 20.7 7.8 25 12.0 ENE 46 57 25 31 1016.1 1016.0 0.0
07/11:30am 29.8 20.9 7.7 25 12.0 ENE 44 56 24 30 1016.5 1016.4 0.0
07/11:00am 30.0 21.3 7.8 25 12.1 ENE 43 59 23 32 1017.0 1016.9 0.0
07/10:30am 29.3 19.4 6.7 24 12.1 E 48 65 26 35 1017.3 1017.2 0.0
07/10:00am 28.7 18.3 6.1 24 11.9 E 50 61 27 33 1017.4 1017.3 0.0
07/09:40am 27.9 18.1 5.5 24 11.6 E 46 65 25 35 1017.4 1017.3 0.0
07/09:30am 27.8 17.8 6.0 25 11.4 E 48 59 26 32 1017.4 1017.3 0.0
07/09:00am 27.3 17.6 5.6 25 11.2 E 46 61 25 33 1017.2 1017.1 0.0
07/08:30am 26.5 18.5 5.5 26 10.8 ESE 37 48 20 26 1017.2 1017.1 0.0
07/08:00am 25.4 17.8 5.6 28 10.1 ESE 35 46 19 25 1017.0 1016.9 0.0
07/07:30am 24.5 16.8 5.3 29 9.7 ESE 35 46 19 25 1016.7 1016.6 0.0
07/07:00am 23.8 16.6 5.2 30 9.3 ESE 32 43 17 23 1016.3 1016.2 0.0
07/06:30am 23.6 16.4 5.0 30 9.3 ESE 32 39 17 21 1015.7 1015.6 0.0

Other formats

Comma delimited format used in spreadsheet applications
http://www.bom.gov.au/fwo/IDW60801/IDW60801.94308.axf

JavaScript Object Notation format (JSON) in row-major order
http://www.bom.gov.au/fwo/IDW60801/IDW60801.94308.json

Data quality

Most of these data are generated automatically and are frequently updated. Quality checks on data are not normally performed. It is possible for incorrect values to appear. Refer to information at About Latest Weather Observations and please check the disclaimer before using these data.